createdAt,value
2022-12-27T00:00:21.065Z,11.43
2022-12-27T00:03:28.549Z,10.57
2022-12-27T00:06:34.588Z,10.03
2022-12-27T00:09:40.959Z,9.97
2022-12-27T00:12:46.909Z,11.70
2022-12-27T00:15:53.186Z,12.27
2022-12-27T00:19:01.015Z,12.20
2022-12-27T00:22:07.060Z,15.13
2022-12-27T00:25:13.687Z,10.13
2022-12-27T00:28:20.068Z,9.13
2022-12-27T00:31:27.729Z,7.13
2022-12-27T00:34:35.599Z,7.10
2022-12-27T00:37:42.049Z,7.50
2022-12-27T00:40:49.358Z,10.07
2022-12-27T00:43:55.268Z,13.37
2022-12-27T00:47:01.389Z,11.20
2022-12-27T00:50:09.981Z,10.37
2022-12-27T00:53:16.668Z,15.80
2022-12-27T00:56:25.076Z,15.27
2022-12-27T00:59:31.471Z,17.27
2022-12-27T01:02:37.643Z,18.30
2022-12-27T01:05:45.555Z,18.00
2022-12-27T01:08:52.196Z,18.50
2022-12-27T01:11:58.701Z,14.37
2022-12-27T01:15:06.592Z,15.53
2022-12-27T01:18:12.843Z,28.57
2022-12-27T01:21:23.015Z,16.50
2022-12-27T01:24:29.567Z,17.23
2022-12-27T01:27:35.859Z,17.53
2022-12-27T01:30:42.306Z,14.33
2022-12-27T01:33:48.833Z,16.57
2022-12-27T01:36:56.159Z,15.63
2022-12-27T01:40:02.214Z,16.73
2022-12-27T01:43:16.743Z,16.73
2022-12-27T01:46:23.662Z,14.10
2022-12-27T01:49:30.399Z,15.20
2022-12-27T01:52:42.237Z,12.90
2022-12-27T01:55:52.226Z,11.67
2022-12-27T01:59:03.328Z,13.23
2022-12-27T02:02:09.768Z,15.80
2022-12-27T02:05:17.711Z,13.53
2022-12-27T02:08:42.679Z,13.10
2022-12-27T02:11:52.915Z,13.33
2022-12-27T02:15:02.365Z,13.50
2022-12-27T02:18:08.961Z,15.30
2022-12-27T02:21:41.460Z,13.10
2022-12-27T02:25:15.298Z,12.53
2022-12-27T02:28:35.142Z,15.87
2022-12-27T02:31:49.412Z,11.47
2022-12-27T02:35:05.373Z,11.00
2022-12-27T02:38:16.796Z,16.27
2022-12-27T02:41:40.572Z,14.37
2022-12-27T02:45:12.882Z,18.23
2022-12-27T02:48:37.569Z,14.97
2022-12-27T02:52:12.719Z,13.47
2022-12-27T02:55:35.818Z,12.97
2022-12-27T02:58:55.879Z,12.80
2022-12-27T03:02:40.309Z,13.90
2022-12-27T03:06:22.824Z,11.67
2022-12-27T03:09:59.898Z,12.77
2022-12-27T03:13:51.828Z,12.47
2022-12-27T03:17:07.075Z,13.83
2022-12-27T03:20:34.714Z,14.37
2022-12-27T03:24:02.050Z,13.77
2022-12-27T03:27:18.329Z,13.33
2022-12-27T03:30:42.136Z,13.67
2022-12-27T03:33:50.729Z,15.83
2022-12-27T03:37:16.032Z,18.70
2022-12-27T03:40:34.758Z,22.27
2022-12-27T03:43:40.766Z,13.23
2022-12-27T03:46:47.831Z,13.93
2022-12-27T03:50:04.491Z,15.17
2022-12-27T03:53:17.164Z,14.70
2022-12-27T03:56:25.108Z,16.70
2022-12-27T03:59:31.869Z,17.50
2022-12-27T04:02:38.294Z,18.70
2022-12-27T04:05:44.518Z,14.90
2022-12-27T04:09:08.523Z,14.73
2022-12-27T04:12:33.385Z,19.30
2022-12-27T04:15:57.394Z,17.80
2022-12-27T04:19:21.381Z,20.70
2022-12-27T04:22:44.950Z,25.13
2022-12-27T04:26:08.806Z,20.47
2022-12-27T04:29:33.343Z,20.50
2022-12-27T04:32:57.023Z,23.20
2022-12-27T04:36:06.421Z,19.93
2022-12-27T04:39:12.849Z,23.10
2022-12-27T04:42:36.777Z,19.80
2022-12-27T04:46:01.947Z,19.77
2022-12-27T04:49:30.486Z,17.07
2022-12-27T04:52:54.452Z,18.57
2022-12-27T04:56:00.561Z,13.27
2022-12-27T04:59:24.556Z,13.43
2022-12-27T05:02:32.346Z,15.63
2022-12-27T05:05:40.374Z,13.97
2022-12-27T05:09:04.306Z,28.43
2022-12-27T05:12:29.036Z,19.40
2022-12-27T05:15:34.923Z,17.07
2022-12-27T05:18:42.602Z,19.80
2022-12-27T05:22:03.117Z,18.77
2022-12-27T05:25:30.007Z,18.40
2022-12-27T05:28:35.855Z,21.63
2022-12-27T05:31:42.242Z,22.80
2022-12-27T05:34:49.907Z,22.00
2022-12-27T05:37:56.309Z,24.00
2022-12-27T05:41:03.855Z,28.07
2022-12-27T05:44:09.977Z,24.87
2022-12-27T05:47:16.465Z,24.83
2022-12-27T05:50:24.199Z,15.97
2022-12-27T05:53:30.102Z,14.93
2022-12-27T05:56:37.457Z,13.50
2022-12-27T05:59:43.604Z,12.77
2022-12-27T06:02:50.225Z,13.27
2022-12-27T06:06:02.962Z,14.77
2022-12-27T06:09:08.830Z,10.70
2022-12-27T06:12:14.979Z,13.80
2022-12-27T06:15:21.299Z,13.70
2022-12-27T06:18:27.355Z,15.57
2022-12-27T06:21:35.624Z,17.97
2022-12-27T06:24:41.589Z,15.53
2022-12-27T06:27:47.681Z,16.03
2022-12-27T06:30:53.556Z,15.00
2022-12-27T06:33:59.508Z,14.00
2022-12-27T06:37:07.158Z,22.27
2022-12-27T06:40:13.608Z,50.40
2022-12-27T06:43:19.561Z,36.37
2022-12-27T06:46:26.365Z,29.23
2022-12-27T06:49:32.665Z,25.90
2022-12-27T06:52:40.457Z,30.37
2022-12-27T06:55:46.528Z,22.50
2022-12-27T06:58:53.117Z,20.23
2022-12-27T07:01:59.391Z,19.10
2022-12-27T07:05:06.652Z,28.03
2022-12-27T07:08:14.158Z,34.20
2022-12-27T07:11:22.419Z,32.03
2022-12-27T07:14:28.746Z,21.80
2022-12-27T07:17:36.195Z,37.40
2022-12-27T07:20:42.506Z,41.17
2022-12-27T07:23:50.452Z,45.27
2022-12-27T07:26:56.716Z,43.77
2022-12-27T07:30:03.039Z,25.43
2022-12-27T07:33:09.404Z,28.83
2022-12-27T07:36:18.365Z,27.07
2022-12-27T07:39:25.693Z,35.83
2022-12-27T07:42:31.654Z,32.50
2022-12-27T07:45:38.130Z,28.00
2022-12-27T07:48:44.425Z,24.90
2022-12-27T07:51:50.339Z,17.80
2022-12-27T07:54:57.866Z,14.17
2022-12-27T07:58:04.046Z,16.23
2022-12-27T08:01:11.151Z,14.10
2022-12-27T08:04:17.490Z,14.90
2022-12-27T08:07:23.960Z,14.47
2022-12-27T08:10:31.572Z,10.50
2022-12-27T08:13:37.807Z,13.13
2022-12-27T08:16:43.981Z,14.60
2022-12-27T08:19:52.896Z,12.57
2022-12-27T08:22:59.154Z,13.17
2022-12-27T08:26:07.355Z,8.97
2022-12-27T08:29:13.545Z,8.33
2022-12-27T08:32:19.663Z,10.67
2022-12-27T08:35:52.682Z,8.20
2022-12-27T08:38:55.512Z,10.67
2022-12-27T08:42:03.495Z,8.70
2022-12-27T08:45:10.635Z,33.60
2022-12-27T08:48:17.792Z,15.87
2022-12-27T08:51:34.465Z,11.90
2022-12-27T08:54:45.295Z,12.17
2022-12-27T08:57:57.000Z,10.83
2022-12-27T09:01:07.404Z,11.67
2022-12-27T09:04:13.690Z,18.63
2022-12-27T09:07:20.000Z,12.73
2022-12-27T09:10:26.560Z,11.97
2022-12-27T09:13:34.431Z,12.27
2022-12-27T09:16:40.965Z,17.27
2022-12-27T09:19:47.406Z,15.77
2022-12-27T09:22:53.640Z,12.80
2022-12-27T09:26:00.113Z,9.10
2022-12-27T09:29:08.226Z,6.93
2022-12-27T09:32:14.669Z,11.00
2022-12-27T09:35:21.167Z,5.50
2022-12-27T09:38:27.326Z,3.70
2022-12-27T09:42:45.001Z,2.57
2022-12-27T09:45:17.315Z,2.50
2022-12-27T09:48:32.995Z,3.23
2022-12-27T09:51:48.257Z,6.60
2022-12-27T09:55:04.717Z,4.27
2022-12-27T09:58:25.326Z,3.90
2022-12-27T10:01:35.314Z,4.20
2022-12-27T10:05:17.937Z,4.00
2022-12-27T10:08:27.332Z,2.23
2022-12-27T10:11:45.260Z,3.90
2022-12-27T10:15:04.534Z,4.70
2022-12-27T10:18:23.715Z,3.53
2022-12-27T10:21:33.666Z,3.53
2022-12-27T10:24:42.562Z,4.20
2022-12-27T10:27:49.256Z,5.27
2022-12-27T10:30:55.419Z,3.20
2022-12-27T10:34:07.593Z,8.07
2022-12-27T10:37:17.824Z,10.90
2022-12-27T10:40:34.204Z,14.00
2022-12-27T10:43:43.779Z,7.60
2022-12-27T10:46:54.128Z,4.43
2022-12-27T10:50:13.732Z,7.23
2022-12-27T10:53:36.018Z,9.57
2022-12-27T10:56:44.419Z,3.57
2022-12-27T11:00:15.031Z,4.73
2022-12-27T11:03:21.687Z,4.87
2022-12-27T11:06:29.217Z,4.97
2022-12-27T11:09:37.376Z,4.03
2022-12-27T11:12:57.087Z,3.07
2022-12-27T11:16:03.455Z,2.63
2022-12-27T11:19:23.738Z,2.67
2022-12-27T11:22:31.505Z,3.50
2022-12-27T11:25:48.026Z,3.00
2022-12-27T11:28:57.219Z,9.17
2022-12-27T11:32:08.704Z,21.80
2022-12-27T11:35:19.596Z,14.67
2022-12-27T11:38:30.699Z,5.73
2022-12-27T11:41:44.293Z,8.80
2022-12-27T11:45:01.939Z,2.30
2022-12-27T11:48:19.822Z,3.07
2022-12-27T11:52:01.928Z,2.83
2022-12-27T11:55:46.879Z,3.50
2022-12-27T11:59:32.150Z,3.10
2022-12-27T12:03:26.972Z,2.87
2022-12-27T12:06:45.393Z,3.60
2022-12-27T12:10:08.466Z,2.33
2022-12-27T12:13:47.426Z,2.70
2022-12-27T12:17:11.872Z,2.57
2022-12-27T12:20:45.634Z,2.37
2022-12-27T12:24:27.944Z,2.20
2022-12-27T12:27:54.737Z,2.63
2022-12-27T12:31:15.501Z,2.63
2022-12-27T12:34:39.484Z,2.60
2022-12-27T12:38:03.591Z,13.63
2022-12-27T12:41:27.046Z,5.40
2022-12-27T12:45:16.762Z,16.47
2022-12-27T12:48:50.665Z,14.50
2022-12-27T12:52:11.710Z,15.37
2022-12-27T12:55:39.839Z,13.60
2022-12-27T12:59:02.306Z,9.87
2022-12-27T13:02:35.373Z,4.37
2022-12-27T13:05:49.171Z,7.27
2022-12-27T13:09:04.622Z,3.20
2022-12-27T13:12:15.308Z,8.23
2022-12-27T13:15:30.540Z,3.37
2022-12-27T13:18:50.300Z,4.70
2022-12-27T13:22:09.742Z,5.00
2022-12-27T13:25:25.576Z,3.50
2022-12-27T13:28:43.045Z,6.57
2022-12-27T13:31:59.366Z,6.47
2022-12-27T13:35:24.081Z,5.87
2022-12-27T13:38:43.604Z,7.40
2022-12-27T13:42:00.960Z,4.37
2022-12-27T13:45:23.248Z,6.57
2022-12-27T13:48:57.867Z,5.27
2022-12-27T13:52:18.172Z,3.47
2022-12-27T13:55:54.612Z,4.10
2022-12-27T13:59:28.087Z,12.33
2022-12-27T14:03:11.083Z,7.43
2022-12-27T14:06:51.670Z,8.40
2022-12-27T14:10:12.401Z,6.53
2022-12-27T14:13:25.761Z,6.37
2022-12-27T14:16:45.176Z,6.53
2022-12-27T14:20:18.214Z,9.67
2022-12-27T14:23:49.260Z,9.20
2022-12-27T14:27:43.281Z,9.77
2022-12-27T14:31:31.622Z,9.17
2022-12-27T14:35:17.399Z,9.00
2022-12-27T14:39:01.989Z,9.93
2022-12-27T14:42:37.544Z,5.87
2022-12-27T14:46:32.738Z,6.43
2022-12-27T14:50:25.799Z,9.00
2022-12-27T14:54:06.939Z,12.10
2022-12-27T14:57:26.214Z,8.60
2022-12-27T15:01:06.611Z,7.90
2022-12-27T15:04:38.692Z,8.47
2022-12-27T15:08:08.917Z,8.53
2022-12-27T15:11:28.450Z,10.47
2022-12-27T15:14:50.343Z,8.77
2022-12-27T15:18:10.525Z,9.60
2022-12-27T15:21:39.885Z,9.70
2022-12-27T15:24:59.666Z,12.13
2022-12-27T15:28:17.406Z,12.93
2022-12-27T15:31:33.014Z,12.63
2022-12-27T15:34:51.040Z,13.63
2022-12-27T15:38:11.855Z,15.60
2022-12-27T15:41:52.139Z,16.97
2022-12-27T15:45:05.702Z,14.73
2022-12-27T15:48:59.575Z,36.70
2022-12-27T15:52:14.859Z,38.27
2022-12-27T15:55:33.746Z,35.50
2022-12-27T15:58:42.316Z,38.20
2022-12-27T16:01:50.409Z,29.70
2022-12-27T16:04:59.098Z,25.63
2022-12-27T16:08:32.011Z,26.17
2022-12-27T16:12:00.756Z,27.00
2022-12-27T16:15:41.216Z,29.90
2022-12-27T16:19:19.355Z,28.53
2022-12-27T16:22:34.028Z,20.90
2022-12-27T16:25:42.468Z,17.50
2022-12-27T16:28:55.598Z,18.77
2022-12-27T16:32:20.759Z,24.93
2022-12-27T16:35:30.349Z,26.53
2022-12-27T16:38:39.687Z,28.07
2022-12-27T16:42:07.282Z,28.87
2022-12-27T16:45:34.920Z,28.63
2022-12-27T16:49:00.065Z,26.20
2022-12-27T16:52:34.764Z,30.13
2022-12-27T16:56:03.907Z,14.20
2022-12-27T16:59:43.637Z,16.07
2022-12-27T17:02:50.365Z,19.67
2022-12-27T17:06:30.795Z,24.00
2022-12-27T17:09:45.242Z,39.43
2022-12-27T17:12:54.981Z,38.67
2022-12-27T17:16:08.819Z,39.47
2022-12-27T17:19:21.164Z,42.47
2022-12-27T17:22:34.574Z,66.80
2022-12-27T17:25:49.263Z,67.00
2022-12-27T17:29:06.011Z,57.20
2022-12-27T17:32:26.253Z,66.17
2022-12-27T17:35:40.039Z,65.23
2022-12-27T17:39:04.442Z,72.33
2022-12-27T17:42:39.443Z,72.03
2022-12-27T17:45:51.824Z,64.53
2022-12-27T17:48:59.220Z,68.90
2022-12-27T17:52:23.302Z,68.10
2022-12-27T17:55:48.387Z,69.40
2022-12-27T17:59:03.609Z,63.20
2022-12-27T18:02:18.213Z,60.30
2022-12-27T18:05:29.006Z,61.77
2022-12-27T18:08:36.238Z,60.43
2022-12-27T18:11:44.394Z,67.03
2022-12-27T18:14:56.921Z,66.60
2022-12-27T18:18:05.480Z,62.73
2022-12-27T18:21:23.516Z,58.93
2022-12-27T18:24:32.284Z,56.70
2022-12-27T18:27:40.351Z,48.43
2022-12-27T18:30:52.599Z,44.87
2022-12-27T18:34:03.499Z,50.53
2022-12-27T18:37:12.974Z,41.47
2022-12-27T18:40:21.623Z,41.47
2022-12-27T18:43:29.991Z,43.40
2022-12-27T18:46:39.420Z,39.63
2022-12-27T18:49:46.456Z,34.87
2022-12-27T18:53:03.343Z,31.00
2022-12-27T18:56:27.184Z,34.53
2022-12-27T18:59:36.363Z,32.73
2022-12-27T19:02:43.616Z,35.87
2022-12-27T19:06:14.268Z,36.47
2022-12-27T19:09:22.425Z,42.83
2022-12-27T19:12:34.603Z,50.40
2022-12-27T19:15:45.294Z,39.23
2022-12-27T19:18:54.632Z,26.57
2022-12-27T19:22:01.192Z,27.43
2022-12-27T19:25:21.838Z,44.47
2022-12-27T19:28:29.944Z,43.43
2022-12-27T19:31:41.355Z,46.83
2022-12-27T19:34:50.306Z,47.20
2022-12-27T19:37:57.419Z,45.60
2022-12-27T19:41:05.009Z,45.97
2022-12-27T19:44:12.736Z,48.03
2022-12-27T19:47:20.254Z,51.10
2022-12-27T19:50:26.704Z,53.37
2022-12-27T19:53:35.949Z,50.77
2022-12-27T19:56:42.099Z,41.47
2022-12-27T19:59:48.737Z,40.90
2022-12-27T20:02:56.329Z,39.20
2022-12-27T20:06:14.194Z,34.73
2022-12-27T20:09:27.344Z,31.70
2022-12-27T20:12:33.631Z,37.97
2022-12-27T20:15:40.165Z,35.40
2022-12-27T20:18:48.143Z,39.43
2022-12-27T20:21:54.515Z,37.00
2022-12-27T20:25:01.077Z,36.53
2022-12-27T20:28:07.272Z,43.70
2022-12-27T20:31:15.870Z,52.67
2022-12-27T20:34:23.859Z,59.90
2022-12-27T20:37:29.993Z,63.03
2022-12-27T20:40:36.047Z,57.03
2022-12-27T20:43:42.635Z,55.93
2022-12-27T20:46:50.041Z,46.63
2022-12-27T20:49:57.471Z,38.33
2022-12-27T20:53:03.874Z,32.37
2022-12-27T20:56:11.162Z,29.47
2022-12-27T20:59:17.237Z,38.93
2022-12-27T21:02:23.793Z,44.00
2022-12-27T21:05:31.453Z,35.33
2022-12-27T21:08:45.479Z,31.97
2022-12-27T21:11:53.958Z,39.07
2022-12-27T21:15:00.246Z,33.40
2022-12-27T21:18:07.533Z,35.93
2022-12-27T21:21:19.616Z,26.50
2022-12-27T21:24:26.403Z,27.30
2022-12-27T21:27:32.595Z,29.33
2022-12-27T21:30:38.797Z,29.90
2022-12-27T21:33:45.150Z,26.13
2022-12-27T21:36:53.254Z,30.97
2022-12-27T21:39:59.588Z,36.70
2022-12-27T21:43:05.702Z,29.67
2022-12-27T21:46:15.635Z,19.60
2022-12-27T21:49:22.023Z,16.33
2022-12-27T21:52:30.143Z,23.27
2022-12-27T21:55:36.225Z,22.23
2022-12-27T21:58:43.563Z,33.43
2022-12-27T22:01:51.478Z,35.87
2022-12-27T22:04:58.761Z,29.07
2022-12-27T22:08:06.841Z,24.60
2022-12-27T22:11:13.978Z,19.90
2022-12-27T22:14:25.255Z,25.73
2022-12-27T22:17:31.836Z,28.57
2022-12-27T22:20:41.999Z,21.53
2022-12-27T22:23:55.860Z,24.23
2022-12-27T22:27:02.010Z,24.40
2022-12-27T22:30:08.801Z,22.70
2022-12-27T22:33:16.426Z,25.40
2022-12-27T22:36:25.043Z,23.13
2022-12-27T22:39:32.754Z,17.87
2022-12-27T22:42:39.059Z,20.53
2022-12-27T22:45:50.309Z,20.57
2022-12-27T22:49:01.276Z,18.83
2022-12-27T22:52:07.567Z,21.00
2022-12-27T22:55:16.319Z,19.13
2022-12-27T22:58:22.824Z,19.73
2022-12-27T23:01:31.013Z,18.17
2022-12-27T23:04:37.383Z,20.63
2022-12-27T23:08:06.057Z,22.40
2022-12-27T23:11:14.602Z,45.27
2022-12-27T23:14:21.134Z,41.97
2022-12-27T23:17:27.295Z,25.03
2022-12-27T23:20:35.296Z,19.13
2022-12-27T23:23:42.115Z,15.57
2022-12-27T23:26:49.713Z,15.87
2022-12-27T23:29:56.075Z,17.23
2022-12-27T23:33:02.419Z,16.40
2022-12-27T23:36:09.144Z,19.53
2022-12-27T23:39:15.344Z,15.93
2022-12-27T23:42:23.223Z,15.47
2022-12-27T23:45:29.547Z,15.40
2022-12-27T23:48:36.179Z,18.90
2022-12-27T23:51:42.634Z,17.40
2022-12-27T23:54:48.607Z,17.23
2022-12-27T23:57:56.139Z,16.27
